sensor_id;sensor_type;location;lat;lon;timestamp;P1;durP1;ratioP1;P2;durP2;ratioP2
20014;SDS011;61787;42.022;23.078;2023-04-03T00:00:37;3.50;;;2.20;;
20014;SDS011;61787;42.022;23.078;2023-04-03T00:01:39;3.00;;;2.47;;
20014;SDS011;61787;42.022;23.078;2023-04-03T00:02:41;3.30;;;2.40;;
20014;SDS011;61787;42.022;23.078;2023-04-03T00:03:43;3.60;;;2.63;;
20014;SDS011;61787;42.022;23.078;2023-04-03T00:04:45;2.93;;;2.13;;
20014;SDS011;61787;42.022;23.078;2023-04-03T00:05:46;3.27;;;2.27;;
20014;SDS011;61787;42.022;23.078;2023-04-03T00:06:48;2.67;;;2.17;;
20014;SDS011;61787;42.022;23.078;2023-04-03T00:07:50;3.27;;;2.40;;
20014;SDS011;61787;42.022;23.078;2023-04-03T00:08:52;3.10;;;2.00;;
20014;SDS011;61787;42.022;23.078;2023-04-03T00:09:54;3.57;;;2.20;;
20014;SDS011;61787;42.022;23.078;2023-04-03T00:10:55;2.33;;;2.10;;
20014;SDS011;61787;42.022;23.078;2023-04-03T00:11:57;5.17;;;2.20;;
20014;SDS011;61787;42.022;23.078;2023-04-03T00:12:59;3.07;;;2.13;;
20014;SDS011;61787;42.022;23.078;2023-04-03T00:14:00;2.27;;;2.07;;
20014;SDS011;61787;42.022;23.078;2023-04-03T00:15:02;4.37;;;2.13;;
20014;SDS011;61787;42.022;23.078;2023-04-03T00:16:04;5.20;;;2.20;;
20014;SDS011;61787;42.022;23.078;2023-04-03T00:17:06;5.60;;;3.00;;
20014;SDS011;61787;42.022;23.078;2023-04-03T00:18:08;2.30;;;2.10;;
20014;SDS011;61787;42.022;23.078;2023-04-03T00:19:10;4.57;;;2.60;;
20014;SDS011;61787;42.022;23.078;2023-04-03T00:20:13;3.33;;;2.50;;
20014;SDS011;61787;42.022;23.078;2023-04-03T00:21:14;3.40;;;2.43;;
20014;SDS011;61787;42.022;23.078;2023-04-03T00:22:16;4.20;;;2.30;;
20014;SDS011;61787;42.022;23.078;2023-04-03T00:23:18;3.37;;;2.30;;
20014;SDS011;61787;42.022;23.078;2023-04-03T00:24:19;3.33;;;2.43;;
20014;SDS011;61787;42.022;23.078;2023-04-03T00:25:21;4.93;;;2.60;;
20014;SDS011;61787;42.022;23.078;2023-04-03T00:26:23;5.03;;;2.30;;
20014;SDS011;61787;42.022;23.078;2023-04-03T00:27:24;4.73;;;2.50;;
20014;SDS011;61787;42.022;23.078;2023-04-03T00:28:26;4.33;;;2.60;;
20014;SDS011;61787;42.022;23.078;2023-04-03T00:29:28;3.33;;;2.40;;
20014;SDS011;61787;42.022;23.078;2023-04-03T00:30:29;7.17;;;2.93;;
20014;SDS011;61787;42.022;23.078;2023-04-03T00:31:31;3.37;;;2.40;;
20014;SDS011;61787;42.022;23.078;2023-04-03T00:32:33;5.40;;;2.70;;
20014;SDS011;61787;42.022;23.078;2023-04-03T00:33:35;5.50;;;3.23;;
20014;SDS011;61787;42.022;23.078;2023-04-03T00:34:37;3.00;;;2.63;;
20014;SDS011;61787;42.022;23.078;2023-04-03T00:35:38;3.40;;;2.53;;
20014;SDS011;61787;42.022;23.078;2023-04-03T00:36:40;6.23;;;2.80;;
20014;SDS011;61787;42.022;23.078;2023-04-03T00:37:42;2.80;;;2.60;;
20014;SDS011;61787;42.022;23.078;2023-04-03T00:38:44;5.13;;;2.87;;
20014;SDS011;61787;42.022;23.078;2023-04-03T00:39:46;5.10;;;2.77;;
20014;SDS011;61787;42.022;23.078;2023-04-03T00:40:48;3.57;;;2.83;;
20014;SDS011;61787;42.022;23.078;2023-04-03T00:41:50;4.20;;;2.70;;
20014;SDS011;61787;42.022;23.078;2023-04-03T00:42:55;5.83;;;2.90;;
20014;SDS011;61787;42.022;23.078;2023-04-03T00:43:58;4.97;;;3.00;;
20014;SDS011;61787;42.022;23.078;2023-04-03T00:46:02;4.53;;;2.90;;
20014;SDS011;61787;42.022;23.078;2023-04-03T00:47:05;6.30;;;2.90;;
20014;SDS011;61787;42.022;23.078;2023-04-03T00:48:10;3.47;;;2.50;;
20014;SDS011;61787;42.022;23.078;2023-04-03T00:49:14;3.93;;;2.17;;
20014;SDS011;61787;42.022;23.078;2023-04-03T00:50:16;2.90;;;2.53;;
20014;SDS011;61787;42.022;23.078;2023-04-03T00:51:25;3.67;;;2.60;;
20014;SDS011;61787;42.022;23.078;2023-04-03T00:52:28;3.63;;;2.47;;
20014;SDS011;61787;42.022;23.078;2023-04-03T00:53:34;3.93;;;2.77;;
20014;SDS011;61787;42.022;23.078;2023-04-03T00:54:39;3.63;;;2.13;;
20014;SDS011;61787;42.022;23.078;2023-04-03T00:55:43;2.90;;;2.40;;
20014;SDS011;61787;42.022;23.078;2023-04-03T00:56:47;3.27;;;2.23;;
20014;SDS011;61787;42.022;23.078;2023-04-03T00:57:51;3.30;;;2.40;;
20014;SDS011;61787;42.022;23.078;2023-04-03T00:59:01;2.20;;;1.90;;
20014;SDS011;61787;42.022;23.078;2023-04-03T01:00:08;2.60;;;1.90;;
20014;SDS011;61787;42.022;23.078;2023-04-03T01:01:13;5.67;;;1.80;;
20014;SDS011;61787;42.022;23.078;2023-04-03T01:02:19;2.90;;;1.67;;
20014;SDS011;61787;42.022;23.078;2023-04-03T01:03:21;3.43;;;1.80;;
20014;SDS011;61787;42.022;23.078;2023-04-03T01:05:32;2.67;;;1.90;;
20014;SDS011;61787;42.022;23.078;2023-04-03T01:06:35;3.63;;;2.00;;
20014;SDS011;61787;42.022;23.078;2023-04-03T01:07:38;4.53;;;2.03;;
20014;SDS011;61787;42.022;23.078;2023-04-03T01:08:40;2.53;;;1.70;;
20014;SDS011;61787;42.022;23.078;2023-04-03T01:09:43;3.20;;;1.97;;
20014;SDS011;61787;42.022;23.078;2023-04-03T01:10:47;2.90;;;2.07;;
20014;SDS011;61787;42.022;23.078;2023-04-03T01:11:49;3.83;;;2.13;;
20014;SDS011;61787;42.022;23.078;2023-04-03T01:12:51;3.10;;;2.10;;
20014;SDS011;61787;42.022;23.078;2023-04-03T01:13:53;3.87;;;2.00;;
20014;SDS011;61787;42.022;23.078;2023-04-03T01:14:56;2.50;;;1.87;;
20014;SDS011;61787;42.022;23.078;2023-04-03T01:16:03;4.50;;;2.20;;
20014;SDS011;61787;42.022;23.078;2023-04-03T01:18:46;2.73;;;2.20;;
20014;SDS011;61787;42.022;23.078;2023-04-03T01:19:48;5.80;;;2.30;;
20014;SDS011;61787;42.022;23.078;2023-04-03T01:21:34;2.53;;;1.73;;
20014;SDS011;61787;42.022;23.078;2023-04-03T01:24:12;4.07;;;2.10;;
20014;SDS011;61787;42.022;23.078;2023-04-03T01:25:24;3.20;;;1.80;;
20014;SDS011;61787;42.022;23.078;2023-04-03T01:26:25;2.97;;;2.23;;
20014;SDS011;61787;42.022;23.078;2023-04-03T01:27:29;3.20;;;2.03;;
20014;SDS011;61787;42.022;23.078;2023-04-03T01:28:33;3.00;;;1.60;;
20014;SDS011;61787;42.022;23.078;2023-04-03T01:29:36;2.47;;;1.80;;
20014;SDS011;61787;42.022;23.078;2023-04-03T01:30:44;5.40;;;2.40;;
20014;SDS011;61787;42.022;23.078;2023-04-03T01:31:52;2.60;;;2.20;;
20014;SDS011;61787;42.022;23.078;2023-04-03T01:32:56;2.57;;;1.90;;
20014;SDS011;61787;42.022;23.078;2023-04-03T01:33:58;3.50;;;2.03;;
20014;SDS011;61787;42.022;23.078;2023-04-03T01:35:00;3.70;;;1.90;;
20014;SDS011;61787;42.022;23.078;2023-04-03T01:36:02;3.80;;;2.10;;
20014;SDS011;61787;42.022;23.078;2023-04-03T01:37:04;2.97;;;2.13;;
20014;SDS011;61787;42.022;23.078;2023-04-03T01:38:06;5.67;;;3.00;;
20014;SDS011;61787;42.022;23.078;2023-04-03T01:39:08;2.90;;;2.60;;
20014;SDS011;61787;42.022;23.078;2023-04-03T01:40:10;3.07;;;2.60;;
20014;SDS011;61787;42.022;23.078;2023-04-03T01:41:11;4.03;;;2.80;;
20014;SDS011;61787;42.022;23.078;2023-04-03T01:42:13;3.37;;;2.60;;
20014;SDS011;61787;42.022;23.078;2023-04-03T01:43:15;4.87;;;2.63;;
20014;SDS011;61787;42.022;23.078;2023-04-03T01:44:16;2.90;;;2.50;;
20014;SDS011;61787;42.022;23.078;2023-04-03T01:45:18;6.27;;;2.63;;
20014;SDS011;61787;42.022;23.078;2023-04-03T01:46:20;2.30;;;2.10;;
20014;SDS011;61787;42.022;23.078;2023-04-03T01:47:21;2.70;;;2.10;;
20014;SDS011;61787;42.022;23.078;2023-04-03T01:48:23;3.83;;;2.50;;
20014;SDS011;61787;42.022;23.078;2023-04-03T01:49:25;4.90;;;2.33;;
20014;SDS011;61787;42.022;23.078;2023-04-03T01:50:27;4.57;;;2.97;;
20014;SDS011;61787;42.022;23.078;2023-04-03T01:51:28;3.23;;;2.20;;
20014;SDS011;61787;42.022;23.078;2023-04-03T01:52:30;3.47;;;2.57;;
20014;SDS011;61787;42.022;23.078;2023-04-03T01:53:32;3.80;;;2.50;;
20014;SDS011;61787;42.022;23.078;2023-04-03T01:54:33;3.53;;;2.77;;
20014;SDS011;61787;42.022;23.078;2023-04-03T01:55:35;3.40;;;2.60;;
20014;SDS011;61787;42.022;23.078;2023-04-03T01:56:36;3.87;;;2.70;;
20014;SDS011;61787;42.022;23.078;2023-04-03T01:57:40;3.83;;;2.97;;
20014;SDS011;61787;42.022;23.078;2023-04-03T01:58:41;3.20;;;2.57;;
20014;SDS011;61787;42.022;23.078;2023-04-03T01:59:43;3.37;;;2.60;;
20014;SDS011;61787;42.022;23.078;2023-04-03T02:00:45;2.40;;;2.13;;
20014;SDS011;61787;42.022;23.078;2023-04-03T02:01:46;3.03;;;2.33;;
20014;SDS011;61787;42.022;23.078;2023-04-03T02:02:48;5.27;;;2.70;;
20014;SDS011;61787;42.022;23.078;2023-04-03T02:03:50;3.63;;;2.60;;
20014;SDS011;61787;42.022;23.078;2023-04-03T02:04:52;4.30;;;3.03;;
20014;SDS011;61787;42.022;23.078;2023-04-03T02:05:53;3.33;;;2.70;;
20014;SDS011;61787;42.022;23.078;2023-04-03T02:06:55;3.27;;;2.60;;
20014;SDS011;61787;42.022;23.078;2023-04-03T02:07:56;3.03;;;2.63;;
20014;SDS011;61787;42.022;23.078;2023-04-03T02:08:58;5.53;;;2.90;;
20014;SDS011;61787;42.022;23.078;2023-04-03T02:09:59;4.30;;;2.80;;
20014;SDS011;61787;42.022;23.078;2023-04-03T02:11:01;3.20;;;2.60;;
20014;SDS011;61787;42.022;23.078;2023-04-03T02:12:02;2.93;;;2.63;;
20014;SDS011;61787;42.022;23.078;2023-04-03T02:13:04;4.03;;;2.67;;
20014;SDS011;61787;42.022;23.078;2023-04-03T02:14:06;4.77;;;2.73;;
20014;SDS011;61787;42.022;23.078;2023-04-03T02:15:08;4.43;;;2.87;;
20014;SDS011;61787;42.022;23.078;2023-04-03T02:16:10;3.30;;;2.20;;
20014;SDS011;61787;42.022;23.078;2023-04-03T02:17:12;3.17;;;2.43;;
20014;SDS011;61787;42.022;23.078;2023-04-03T02:18:14;3.07;;;2.40;;
20014;SDS011;61787;42.022;23.078;2023-04-03T02:19:16;4.47;;;2.67;;
20014;SDS011;61787;42.022;23.078;2023-04-03T02:20:18;3.93;;;2.40;;
20014;SDS011;61787;42.022;23.078;2023-04-03T02:21:19;4.23;;;2.73;;
20014;SDS011;61787;42.022;23.078;2023-04-03T02:22:21;2.80;;;2.47;;
20014;SDS011;61787;42.022;23.078;2023-04-03T02:23:23;3.27;;;2.20;;
20014;SDS011;61787;42.022;23.078;2023-04-03T02:24:24;3.77;;;2.37;;
20014;SDS011;61787;42.022;23.078;2023-04-03T02:25:26;3.37;;;2.90;;
20014;SDS011;61787;42.022;23.078;2023-04-03T02:26:28;3.80;;;2.43;;
20014;SDS011;61787;42.022;23.078;2023-04-03T02:27:29;2.67;;;2.43;;
20014;SDS011;61787;42.022;23.078;2023-04-03T02:28:33;3.30;;;2.63;;
20014;SDS011;61787;42.022;23.078;2023-04-03T02:29:35;3.10;;;2.37;;
20014;SDS011;61787;42.022;23.078;2023-04-03T02:30:37;3.07;;;2.33;;
20014;SDS011;61787;42.022;23.078;2023-04-03T02:31:39;2.90;;;2.43;;
20014;SDS011;61787;42.022;23.078;2023-04-03T02:32:41;3.33;;;2.40;;
20014;SDS011;61787;42.022;23.078;2023-04-03T02:33:43;3.37;;;2.10;;
20014;SDS011;61787;42.022;23.078;2023-04-03T02:34:45;4.37;;;2.47;;
20014;SDS011;61787;42.022;23.078;2023-04-03T02:35:46;4.40;;;2.70;;
20014;SDS011;61787;42.022;23.078;2023-04-03T02:36:54;7.53;;;3.70;;
20014;SDS011;61787;42.022;23.078;2023-04-03T02:37:56;7.37;;;3.30;;
20014;SDS011;61787;42.022;23.078;2023-04-03T02:38:57;4.47;;;3.23;;
20014;SDS011;61787;42.022;23.078;2023-04-03T02:39:59;6.03;;;2.93;;
20014;SDS011;61787;42.022;23.078;2023-04-03T02:41:04;4.47;;;3.07;;
20014;SDS011;61787;42.022;23.078;2023-04-03T02:42:09;5.13;;;3.20;;
20014;SDS011;61787;42.022;23.078;2023-04-03T02:43:10;5.53;;;3.00;;
20014;SDS011;61787;42.022;23.078;2023-04-03T02:44:12;6.83;;;4.00;;
20014;SDS011;61787;42.022;23.078;2023-04-03T02:45:14;9.23;;;4.40;;
20014;SDS011;61787;42.022;23.078;2023-04-03T02:46:16;6.43;;;3.83;;
20014;SDS011;61787;42.022;23.078;2023-04-03T02:47:17;7.27;;;3.77;;
20014;SDS011;61787;42.022;23.078;2023-04-03T02:48:19;7.00;;;3.90;;
20014;SDS011;61787;42.022;23.078;2023-04-03T02:49:20;5.20;;;3.70;;
20014;SDS011;61787;42.022;23.078;2023-04-03T02:50:22;7.63;;;3.93;;
20014;SDS011;61787;42.022;23.078;2023-04-03T02:51:24;6.47;;;4.40;;
20014;SDS011;61787;42.022;23.078;2023-04-03T02:52:26;6.70;;;3.87;;
20014;SDS011;61787;42.022;23.078;2023-04-03T02:53:27;7.47;;;4.20;;
20014;SDS011;61787;42.022;23.078;2023-04-03T02:54:29;5.20;;;3.60;;
20014;SDS011;61787;42.022;23.078;2023-04-03T02:55:31;6.93;;;3.47;;
20014;SDS011;61787;42.022;23.078;2023-04-03T02:56:33;4.60;;;3.27;;
20014;SDS011;61787;42.022;23.078;2023-04-03T02:57:35;10.17;;;3.57;;
20014;SDS011;61787;42.022;23.078;2023-04-03T02:58:37;4.50;;;3.00;;
20014;SDS011;61787;42.022;23.078;2023-04-03T02:59:38;4.27;;;2.80;;
20014;SDS011;61787;42.022;23.078;2023-04-03T03:00:43;7.77;;;3.67;;
20014;SDS011;61787;42.022;23.078;2023-04-03T03:01:44;8.93;;;3.60;;
20014;SDS011;61787;42.022;23.078;2023-04-03T03:02:48;4.70;;;3.37;;
20014;SDS011;61787;42.022;23.078;2023-04-03T03:03:50;6.40;;;3.13;;
20014;SDS011;61787;42.022;23.078;2023-04-03T03:04:51;5.13;;;3.37;;
20014;SDS011;61787;42.022;23.078;2023-04-03T03:06:06;4.83;;;3.10;;
20014;SDS011;61787;42.022;23.078;2023-04-03T03:07:10;6.17;;;3.30;;
20014;SDS011;61787;42.022;23.078;2023-04-03T03:08:12;5.13;;;3.03;;
20014;SDS011;61787;42.022;23.078;2023-04-03T03:09:13;4.80;;;3.27;;
20014;SDS011;61787;42.022;23.078;2023-04-03T03:10:15;5.93;;;2.93;;
20014;SDS011;61787;42.022;23.078;2023-04-03T03:11:17;4.50;;;3.27;;
20014;SDS011;61787;42.022;23.078;2023-04-03T03:12:19;5.43;;;3.53;;
20014;SDS011;61787;42.022;23.078;2023-04-03T03:13:23;9.87;;;3.90;;
20014;SDS011;61787;42.022;23.078;2023-04-03T03:14:25;6.40;;;3.87;;
20014;SDS011;61787;42.022;23.078;2023-04-03T03:15:27;9.63;;;3.90;;
20014;SDS011;61787;42.022;23.078;2023-04-03T03:16:28;9.27;;;4.10;;
20014;SDS011;61787;42.022;23.078;2023-04-03T03:17:30;8.80;;;4.40;;
20014;SDS011;61787;42.022;23.078;2023-04-03T03:18:32;8.03;;;4.03;;
20014;SDS011;61787;42.022;23.078;2023-04-03T03:19:34;8.10;;;4.67;;
20014;SDS011;61787;42.022;23.078;2023-04-03T03:20:35;6.53;;;4.20;;
20014;SDS011;61787;42.022;23.078;2023-04-03T03:21:38;6.13;;;4.10;;
20014;SDS011;61787;42.022;23.078;2023-04-03T03:22:39;6.70;;;4.10;;
20014;SDS011;61787;42.022;23.078;2023-04-03T03:23:41;6.87;;;4.70;;
20014;SDS011;61787;42.022;23.078;2023-04-03T03:24:42;7.30;;;4.23;;
20014;SDS011;61787;42.022;23.078;2023-04-03T03:25:44;5.03;;;3.93;;
20014;SDS011;61787;42.022;23.078;2023-04-03T03:26:46;6.10;;;3.90;;
20014;SDS011;61787;42.022;23.078;2023-04-03T03:27:47;5.57;;;4.00;;
20014;SDS011;61787;42.022;23.078;2023-04-03T03:28:49;5.83;;;4.00;;
20014;SDS011;61787;42.022;23.078;2023-04-03T03:29:50;8.30;;;4.27;;
20014;SDS011;61787;42.022;23.078;2023-04-03T03:30:52;5.70;;;3.90;;
20014;SDS011;61787;42.022;23.078;2023-04-03T03:31:54;6.57;;;3.73;;
20014;SDS011;61787;42.022;23.078;2023-04-03T03:32:56;5.73;;;3.67;;
20014;SDS011;61787;42.022;23.078;2023-04-03T03:33:57;6.87;;;3.37;;
20014;SDS011;61787;42.022;23.078;2023-04-03T03:34:59;8.90;;;4.20;;
20014;SDS011;61787;42.022;23.078;2023-04-03T03:36:00;7.00;;;3.90;;
20014;SDS011;61787;42.022;23.078;2023-04-03T03:37:02;6.70;;;3.73;;
20014;SDS011;61787;42.022;23.078;2023-04-03T03:38:04;5.70;;;3.47;;
20014;SDS011;61787;42.022;23.078;2023-04-03T03:39:05;5.80;;;3.80;;
20014;SDS011;61787;42.022;23.078;2023-04-03T03:40:07;5.73;;;3.63;;
20014;SDS011;61787;42.022;23.078;2023-04-03T03:41:09;8.20;;;3.93;;
20014;SDS011;61787;42.022;23.078;2023-04-03T03:42:11;5.70;;;3.77;;
20014;SDS011;61787;42.022;23.078;2023-04-03T03:43:13;5.47;;;3.90;;
20014;SDS011;61787;42.022;23.078;2023-04-03T03:44:14;5.93;;;3.57;;
20014;SDS011;61787;42.022;23.078;2023-04-03T03:45:16;7.77;;;3.40;;
20014;SDS011;61787;42.022;23.078;2023-04-03T03:46:18;4.97;;;3.50;;
20014;SDS011;61787;42.022;23.078;2023-04-03T03:47:19;6.60;;;3.17;;
20014;SDS011;61787;42.022;23.078;2023-04-03T03:48:21;6.93;;;3.70;;
20014;SDS011;61787;42.022;23.078;2023-04-03T03:49:24;4.97;;;3.37;;
20014;SDS011;61787;42.022;23.078;2023-04-03T03:50:26;6.70;;;3.53;;
20014;SDS011;61787;42.022;23.078;2023-04-03T03:51:28;3.87;;;3.23;;
20014;SDS011;61787;42.022;23.078;2023-04-03T03:52:29;6.00;;;3.57;;
20014;SDS011;61787;42.022;23.078;2023-04-03T03:53:31;4.77;;;3.33;;
20014;SDS011;61787;42.022;23.078;2023-04-03T03:54:32;5.97;;;3.80;;
20014;SDS011;61787;42.022;23.078;2023-04-03T03:55:34;7.20;;;3.73;;
20014;SDS011;61787;42.022;23.078;2023-04-03T03:56:36;5.73;;;3.53;;
20014;SDS011;61787;42.022;23.078;2023-04-03T03:57:38;6.93;;;3.80;;
20014;SDS011;61787;42.022;23.078;2023-04-03T03:58:39;6.37;;;4.37;;
20014;SDS011;61787;42.022;23.078;2023-04-03T03:59:41;5.33;;;3.53;;
20014;SDS011;61787;42.022;23.078;2023-04-03T04:00:43;6.23;;;3.77;;
20014;SDS011;61787;42.022;23.078;2023-04-03T04:01:44;3.63;;;3.30;;
20014;SDS011;61787;42.022;23.078;2023-04-03T04:02:46;5.43;;;3.57;;
20014;SDS011;61787;42.022;23.078;2023-04-03T04:03:48;5.63;;;3.63;;
20014;SDS011;61787;42.022;23.078;2023-04-03T04:04:50;6.67;;;3.53;;
20014;SDS011;61787;42.022;23.078;2023-04-03T04:05:51;6.43;;;3.57;;
20014;SDS011;61787;42.022;23.078;2023-04-03T04:06:53;5.30;;;3.30;;
20014;SDS011;61787;42.022;23.078;2023-04-03T04:07:55;4.70;;;3.13;;
20014;SDS011;61787;42.022;23.078;2023-04-03T04:08:56;4.33;;;3.30;;
20014;SDS011;61787;42.022;23.078;2023-04-03T04:09:58;5.93;;;3.40;;
20014;SDS011;61787;42.022;23.078;2023-04-03T04:10:59;6.10;;;3.43;;
20014;SDS011;61787;42.022;23.078;2023-04-03T04:12:01;5.10;;;3.60;;
20014;SDS011;61787;42.022;23.078;2023-04-03T04:13:03;4.03;;;3.60;;
20014;SDS011;61787;42.022;23.078;2023-04-03T04:14:05;4.70;;;3.30;;
20014;SDS011;61787;42.022;23.078;2023-04-03T04:15:06;5.50;;;3.37;;
20014;SDS011;61787;42.022;23.078;2023-04-03T04:16:08;5.47;;;3.43;;
20014;SDS011;61787;42.022;23.078;2023-04-03T04:17:11;6.17;;;3.33;;
20014;SDS011;61787;42.022;23.078;2023-04-03T04:18:12;4.33;;;3.27;;
20014;SDS011;61787;42.022;23.078;2023-04-03T04:19:14;5.73;;;3.17;;
20014;SDS011;61787;42.022;23.078;2023-04-03T04:20:16;4.97;;;3.20;;
20014;SDS011;61787;42.022;23.078;2023-04-03T04:21:17;4.30;;;2.97;;
20014;SDS011;61787;42.022;23.078;2023-04-03T04:22:19;4.80;;;3.57;;
20014;SDS011;61787;42.022;23.078;2023-04-03T04:23:20;3.87;;;3.10;;
20014;SDS011;61787;42.022;23.078;2023-04-03T04:24:22;4.00;;;3.33;;
20014;SDS011;61787;42.022;23.078;2023-04-03T04:25:24;8.20;;;3.23;;
20014;SDS011;61787;42.022;23.078;2023-04-03T04:26:25;4.90;;;3.30;;
20014;SDS011;61787;42.022;23.078;2023-04-03T04:27:27;4.30;;;3.10;;
20014;SDS011;61787;42.022;23.078;2023-04-03T04:28:29;5.17;;;3.80;;
20014;SDS011;61787;42.022;23.078;2023-04-03T04:29:30;5.20;;;3.50;;
20014;SDS011;61787;42.022;23.078;2023-04-03T04:30:36;4.83;;;3.50;;
20014;SDS011;61787;42.022;23.078;2023-04-03T04:31:38;4.20;;;3.50;;
20014;SDS011;61787;42.022;23.078;2023-04-03T04:32:40;5.77;;;3.80;;
20014;SDS011;61787;42.022;23.078;2023-04-03T04:33:42;5.40;;;3.00;;
20014;SDS011;61787;42.022;23.078;2023-04-03T04:34:43;4.23;;;3.17;;
20014;SDS011;61787;42.022;23.078;2023-04-03T04:35:46;4.17;;;3.10;;
20014;SDS011;61787;42.022;23.078;2023-04-03T04:36:49;4.80;;;2.87;;
20014;SDS011;61787;42.022;23.078;2023-04-03T04:37:50;4.70;;;3.77;;
20014;SDS011;61787;42.022;23.078;2023-04-03T04:38:52;5.90;;;2.97;;
20014;SDS011;61787;42.022;23.078;2023-04-03T04:39:54;5.70;;;3.30;;
20014;SDS011;61787;42.022;23.078;2023-04-03T04:40:55;4.60;;;3.03;;
20014;SDS011;61787;42.022;23.078;2023-04-03T04:41:57;6.03;;;3.00;;
20014;SDS011;61787;42.022;23.078;2023-04-03T04:42:59;5.03;;;2.90;;
20014;SDS011;61787;42.022;23.078;2023-04-03T04:44:00;4.83;;;2.70;;
20014;SDS011;61787;42.022;23.078;2023-04-03T04:45:02;5.37;;;2.57;;
20014;SDS011;61787;42.022;23.078;2023-04-03T04:46:05;5.63;;;3.00;;
20014;SDS011;61787;42.022;23.078;2023-04-03T04:47:08;3.80;;;2.60;;
20014;SDS011;61787;42.022;23.078;2023-04-03T04:48:09;4.77;;;3.00;;
20014;SDS011;61787;42.022;23.078;2023-04-03T04:49:11;6.03;;;2.70;;
20014;SDS011;61787;42.022;23.078;2023-04-03T04:50:13;5.63;;;3.53;;
20014;SDS011;61787;42.022;23.078;2023-04-03T04:51:14;8.30;;;3.90;;
20014;SDS011;61787;42.022;23.078;2023-04-03T04:52:16;6.47;;;4.07;;
20014;SDS011;61787;42.022;23.078;2023-04-03T04:53:18;6.57;;;4.07;;
20014;SDS011;61787;42.022;23.078;2023-04-03T04:54:19;8.83;;;4.10;;
20014;SDS011;61787;42.022;23.078;2023-04-03T04:55:21;7.20;;;4.20;;
20014;SDS011;61787;42.022;23.078;2023-04-03T04:56:23;6.00;;;3.30;;
20014;SDS011;61787;42.022;23.078;2023-04-03T04:57:24;6.43;;;4.10;;
20014;SDS011;61787;42.022;23.078;2023-04-03T04:58:26;7.77;;;4.07;;
20014;SDS011;61787;42.022;23.078;2023-04-03T04:59:28;7.33;;;3.80;;
20014;SDS011;61787;42.022;23.078;2023-04-03T05:00:29;5.07;;;4.13;;
20014;SDS011;61787;42.022;23.078;2023-04-03T05:01:31;8.47;;;3.73;;
20014;SDS011;61787;42.022;23.078;2023-04-03T05:02:32;5.10;;;3.53;;
20014;SDS011;61787;42.022;23.078;2023-04-03T05:03:34;7.30;;;3.70;;
20014;SDS011;61787;42.022;23.078;2023-04-03T05:04:36;8.03;;;3.63;;
20014;SDS011;61787;42.022;23.078;2023-04-03T05:05:37;5.07;;;3.07;;
20014;SDS011;61787;42.022;23.078;2023-04-03T05:06:40;5.53;;;2.93;;
20014;SDS011;61787;42.022;23.078;2023-04-03T05:07:42;5.97;;;2.77;;
20014;SDS011;61787;42.022;23.078;2023-04-03T05:08:43;4.03;;;3.00;;
20014;SDS011;61787;42.022;23.078;2023-04-03T05:09:45;4.23;;;3.13;;
20014;SDS011;61787;42.022;23.078;2023-04-03T05:10:46;6.13;;;3.70;;
20014;SDS011;61787;42.022;23.078;2023-04-03T05:11:48;4.83;;;3.27;;
20014;SDS011;61787;42.022;23.078;2023-04-03T05:12:50;4.47;;;3.03;;
20014;SDS011;61787;42.022;23.078;2023-04-03T05:13:51;4.47;;;2.93;;
20014;SDS011;61787;42.022;23.078;2023-04-03T05:14:53;4.77;;;2.90;;
20014;SDS011;61787;42.022;23.078;2023-04-03T05:15:55;3.07;;;2.77;;
20014;SDS011;61787;42.022;23.078;2023-04-03T05:16:57;5.53;;;3.37;;
20014;SDS011;61787;42.022;23.078;2023-04-03T05:17:59;3.00;;;2.70;;
20014;SDS011;61787;42.022;23.078;2023-04-03T05:19:00;3.70;;;2.63;;
20014;SDS011;61787;42.022;23.078;2023-04-03T05:20:02;5.27;;;3.10;;
20014;SDS011;61787;42.022;23.078;2023-04-03T05:21:06;3.90;;;3.20;;
20014;SDS011;61787;42.022;23.078;2023-04-03T05:22:07;4.33;;;3.60;;
20014;SDS011;61787;42.022;23.078;2023-04-03T05:23:09;3.70;;;3.10;;
20014;SDS011;61787;42.022;23.078;2023-04-03T05:24:11;5.30;;;3.30;;
20014;SDS011;61787;42.022;23.078;2023-04-03T05:25:13;5.00;;;3.43;;
20014;SDS011;61787;42.022;23.078;2023-04-03T05:26:16;6.00;;;3.13;;
20014;SDS011;61787;42.022;23.078;2023-04-03T05:27:17;4.43;;;3.27;;
20014;SDS011;61787;42.022;23.078;2023-04-03T05:28:19;4.47;;;3.70;;
20014;SDS011;61787;42.022;23.078;2023-04-03T05:29:21;4.10;;;3.40;;
20014;SDS011;61787;42.022;23.078;2023-04-03T05:30:22;3.53;;;3.20;;
20014;SDS011;61787;42.022;23.078;2023-04-03T05:31:24;6.13;;;3.77;;
20014;SDS011;61787;42.022;23.078;2023-04-03T05:32:26;4.40;;;3.40;;
20014;SDS011;61787;42.022;23.078;2023-04-03T05:33:28;4.13;;;3.40;;
20014;SDS011;61787;42.022;23.078;2023-04-03T05:34:30;3.33;;;2.83;;
20014;SDS011;61787;42.022;23.078;2023-04-03T05:35:32;4.43;;;3.07;;
20014;SDS011;61787;42.022;23.078;2023-04-03T05:36:33;5.20;;;3.17;;
20014;SDS011;61787;42.022;23.078;2023-04-03T05:37:35;3.73;;;3.10;;
20014;SDS011;61787;42.022;23.078;2023-04-03T05:38:38;6.63;;;3.53;;
20014;SDS011;61787;42.022;23.078;2023-04-03T05:39:40;3.50;;;3.10;;
20014;SDS011;61787;42.022;23.078;2023-04-03T05:40:42;6.47;;;3.60;;
20014;SDS011;61787;42.022;23.078;2023-04-03T05:41:44;5.03;;;3.20;;
20014;SDS011;61787;42.022;23.078;2023-04-03T05:42:45;6.23;;;3.53;;
20014;SDS011;61787;42.022;23.078;2023-04-03T05:43:47;5.73;;;3.37;;
20014;SDS011;61787;42.022;23.078;2023-04-03T05:44:49;5.50;;;4.17;;
20014;SDS011;61787;42.022;23.078;2023-04-03T05:45:51;8.67;;;4.30;;
20014;SDS011;61787;42.022;23.078;2023-04-03T05:46:53;6.67;;;4.10;;
20014;SDS011;61787;42.022;23.078;2023-04-03T05:47:55;9.40;;;4.20;;
20014;SDS011;61787;42.022;23.078;2023-04-03T05:48:57;6.10;;;4.27;;
20014;SDS011;61787;42.022;23.078;2023-04-03T05:49:58;5.97;;;4.30;;
20014;SDS011;61787;42.022;23.078;2023-04-03T05:51:00;5.57;;;4.60;;
20014;SDS011;61787;42.022;23.078;2023-04-03T05:52:02;12.90;;;5.20;;
20014;SDS011;61787;42.022;23.078;2023-04-03T05:53:03;8.47;;;5.23;;
20014;SDS011;61787;42.022;23.078;2023-04-03T05:55:15;7.20;;;4.70;;
20014;SDS011;61787;42.022;23.078;2023-04-03T05:56:17;9.60;;;5.00;;
20014;SDS011;61787;42.022;23.078;2023-04-03T05:57:18;17.03;;;6.27;;
20014;SDS011;61787;42.022;23.078;2023-04-03T05:58:20;12.33;;;6.27;;
20014;SDS011;61787;42.022;23.078;2023-04-03T05:59:22;12.17;;;6.33;;
20014;SDS011;61787;42.022;23.078;2023-04-03T06:00:23;10.23;;;6.87;;
20014;SDS011;61787;42.022;23.078;2023-04-03T06:01:25;16.13;;;8.40;;
20014;SDS011;61787;42.022;23.078;2023-04-03T06:02:27;22.47;;;10.43;;
20014;SDS011;61787;42.022;23.078;2023-04-03T06:03:29;23.87;;;12.27;;
20014;SDS011;61787;42.022;23.078;2023-04-03T06:04:31;18.33;;;11.87;;
20014;SDS011;61787;42.022;23.078;2023-04-03T06:05:33;21.73;;;12.60;;
20014;SDS011;61787;42.022;23.078;2023-04-03T06:06:50;18.03;;;11.43;;
20014;SDS011;61787;42.022;23.078;2023-04-03T06:07:54;18.23;;;10.23;;
20014;SDS011;61787;42.022;23.078;2023-04-03T06:08:56;20.60;;;10.07;;
20014;SDS011;61787;42.022;23.078;2023-04-03T06:09:57;17.10;;;9.27;;
20014;SDS011;61787;42.022;23.078;2023-04-03T06:10:59;15.83;;;9.63;;
20014;SDS011;61787;42.022;23.078;2023-04-03T06:12:01;14.80;;;8.67;;
20014;SDS011;61787;42.022;23.078;2023-04-03T06:13:03;16.20;;;8.73;;
20014;SDS011;61787;42.022;23.078;2023-04-03T06:14:04;15.80;;;7.50;;
20014;SDS011;61787;42.022;23.078;2023-04-03T06:15:06;17.23;;;7.80;;
20014;SDS011;61787;42.022;23.078;2023-04-03T06:16:11;11.17;;;7.30;;